Time;durP1;ratioP1;P1;durP2;ratioP2;P2;SDS_P1;SDS_P2;PMS_P1;PMS_P2;Temp;Humidity;BMP_temperature;BMP_pressure;BME280_temperature;BME280_humidity;BME280_pressure;Samples;Min_cycle;Max_cycle;Signal;HPM_P1;HPM_P2
2022/12/23 00:02:25;;;;;;;;;0.50;0.00;;;;;15.11;67.52;100242.56;5045016;28;59156;-67
2022/12/23 00:04:50;;;;;;;;;0.25;0.25;;;;;15.11;67.69;100243.41;5048656;28;64696;-67
2022/12/23 00:07:15;;;;;;;;;1.00;0.75;;;;;15.11;67.42;100238.13;5047722;28;61877;-67
2022/12/23 00:09:41;;;;;;;;;0.00;0.00;;;;;15.11;67.59;100243.41;5041476;28;54800;-67
2022/12/23 00:15:05;;;;;;;;;0.00;0.00;;;;;15.13;67.68;100251.22;5039723;28;45263;-67
2022/12/23 00:17:41;;;;;;;;;0.00;0.00;;;;;15.17;67.80;100244.84;5039580;28;45448;-67
2022/12/23 00:20:07;;;;;;;;;3.00;0.00;;;;;15.17;67.48;100242.22;5053087;28;45639;-67
2022/12/23 00:25:17;;;;;;;;;1.50;1.00;;;;;15.16;67.63;100246.63;5047821;28;45414;-67
2022/12/23 00:28:00;;;;;;;;;1.75;0.00;;;;;15.14;67.78;100253.78;5047034;28;67511;-67
2022/12/23 00:30:26;;;;;;;;;1.00;1.00;;;;;15.13;68.02;100253.88;5048717;28;45260;-67
2022/12/23 00:32:51;;;;;;;;;0.00;0.00;;;;;15.13;68.10;100256.50;5047128;28;45433;-67
2022/12/23 00:35:17;;;;;;;;;2.00;0.25;;;;;15.09;68.08;100250.53;5041691;28;62423;-68
2022/12/23 00:37:42;;;;;;;;;0.00;0.00;;;;;15.08;68.58;100247.97;5055136;28;46147;-68
2022/12/23 00:42:55;;;;;;;;;0.00;0.00;;;;;15.05;68.61;100240.22;5047873;28;45288;-68
2022/12/23 00:45:21;;;;;;;;;0.00;0.00;;;;;15.03;69.04;100244.75;5046402;28;45261;-68
2022/12/23 00:50:34;;;;;;;;;1.00;0.00;;;;;14.99;69.16;100247.53;5040444;28;45289;-69
2022/12/23 00:52:59;;;;;;;;;0.00;0.00;;;;;15.01;69.49;100250.09;5047984;28;45425;-68
2022/12/23 00:55:25;;;;;;;;;1.50;0.75;;;;;15.01;69.24;100258.00;5050058;28;45348;-69
2022/12/23 00:57:50;;;;;;;;;4.00;0.50;;;;;15.00;69.18;100265.06;5054122;28;47098;-68
2022/12/23 01:00:16;;;;;;;;;1.25;0.50;;;;;15.00;69.34;100267.69;5039007;28;53087;-68
2022/12/23 01:05:37;;;;;;;;;0.50;0.00;;;;;14.98;69.57;100277.47;5056025;28;45468;-69
2022/12/23 01:08:08;;;;;;;;;3.50;0.25;;;;;14.99;69.33;100280.94;5051092;28;46257;-69
2022/12/23 01:10:39;;;;;;;;;0.00;0.00;;;;;15.02;69.70;100291.34;5041487;28;45741;-68
2022/12/23 01:13:05;;;;;;;;;4.50;1.00;;;;;15.04;69.51;100293.88;5045739;28;45209;-68
2022/12/23 01:15:31;;;;;;;;;4.00;1.00;;;;;15.04;69.77;100293.88;5045482;28;45297;-69
2022/12/23 01:17:57;;;;;;;;;1.00;1.00;;;;;15.00;69.51;100291.41;5050462;28;45418;-68
2022/12/23 01:20:23;;;;;;;;;3.50;0.25;;;;;15.03;69.53;100279.00;5055960;28;45564;-70
2022/12/23 01:22:48;;;;;;;;;1.75;1.00;;;;;15.03;69.93;100285.09;5055006;28;45452;-70
2022/12/23 01:25:13;;;;;;;;;2.00;1.75;;;;;15.03;69.74;100282.47;5043938;28;58265;-69
2022/12/23 01:27:39;;;;;;;;;1.00;1.00;;;;;15.04;70.24;100286.81;5049360;28;66433;-70
2022/12/23 01:30:05;;;;;;;;;1.00;1.00;;;;;15.05;70.18;100282.41;5050023;28;66301;-69
2022/12/23 01:32:30;;;;;;;;;1.25;0.50;;;;;15.05;70.11;100288.53;5050184;28;45375;-70
2022/12/23 01:34:56;;;;;;;;;2.75;2.75;;;;;15.05;70.03;100283.28;5042609;28;64386;-69
2022/12/23 01:37:21;;;;;;;;;1.00;1.00;;;;;15.06;70.04;100292.03;5046685;28;63341;-70
2022/12/23 01:39:47;;;;;;;;;0.75;0.75;;;;;15.07;69.90;100291.06;5048137;28;45285;-70
2022/12/23 01:45:00;;;;;;;;;4.00;3.50;;;;;15.08;70.46;100288.34;5047960;28;45445;-69
2022/12/23 01:47:49;;;;;;;;;1.75;1.00;;;;;15.08;70.26;100284.88;5046783;28;46146;-69
2022/12/23 01:50:28;;;;;;;;;1.75;1.75;;;;;15.08;70.70;100290.16;5055132;28;45303;-70
2022/12/23 01:53:07;;;;;;;;;2.25;1.75;;;;;15.07;70.27;100291.06;5044359;28;45813;-69
2022/12/23 01:55:43;;;;;;;;;3.00;2.00;;;;;15.08;70.61;100290.16;5051918;28;45367;-69
2022/12/23 01:58:38;;;;;;;;;1.75;1.75;;;;;15.09;70.47;100283.97;5047113;28;46392;-69
2022/12/23 02:03:51;;;;;;;;;2.50;1.75;;;;;15.10;70.69;100291.78;5046103;28;45351;-69
2022/12/23 02:09:28;;;;;;;;;1.75;0.25;;;;;15.11;70.58;100293.47;5047720;28;45745;-69
2022/12/23 02:12:04;;;;;;;;;0.00;0.00;;;;;15.12;70.43;100300.47;5053617;28;45806;-70
2022/12/23 02:17:40;;;;;;;;;1.00;0.00;;;;;15.11;70.61;100293.47;5052818;28;45291;-69
2022/12/23 02:20:24;;;;;;;;;1.00;0.25;;;;;15.11;70.58;100287.34;5052216;28;45364;-70
2022/12/23 02:23:26;;;;;;;;;1.00;1.00;;;;;15.11;70.61;100280.28;5045252;28;45441;-70
2022/12/23 02:25:58;;;;;;;;;1.25;1.00;;;;;15.11;70.79;100280.28;5056844;28;46202;-70
2022/12/23 02:28:43;;;;;;;;;1.00;0.00;;;;;15.10;70.57;100283.00;5044439;28;45513;-69
2022/12/23 02:31:25;;;;;;;;;2.00;0.00;;;;;15.08;70.35;100272.53;5054074;28;46773;-70
2022/12/23 02:34:20;;;;;;;;;2.00;0.00;;;;;15.07;70.49;100277.88;5044374;28;45793;-70
2022/12/23 02:37:03;;;;;;;;;1.75;1.00;;;;;15.08;70.37;100274.34;5040952;28;45314;-69
2022/12/23 02:39:45;;;;;;;;;1.00;1.00;;;;;15.10;70.34;100275.97;5053478;28;45220;-70
2022/12/23 02:42:15;;;;;;;;;2.00;2.00;;;;;15.11;70.43;100271.53;5052459;28;46557;-69
2022/12/23 02:44:43;;;;;;;;;0.00;0.00;;;;;15.11;70.18;100274.19;5051424;28;45634;-69
2022/12/23 02:47:18;;;;;;;;;0.00;0.00;;;;;15.09;70.22;100271.63;5047242;28;45473;-69
2022/12/23 02:49:47;;;;;;;;;4.25;1.00;;;;;15.09;69.99;100270.78;5049087;28;45379;-69
2022/12/23 02:52:14;;;;;;;;;1.00;1.00;;;;;15.09;69.89;100271.63;5045957;28;45850;-69
2022/12/23 02:54:47;;;;;;;;;3.00;1.00;;;;;15.11;69.97;100271.53;5052801;28;45225;-70
2022/12/23 02:57:18;;;;;;;;;1.00;0.50;;;;;15.08;69.66;100267.28;5038976;28;45467;-69
2022/12/23 02:59:46;;;;;;;;;1.75;0.00;;;;;15.09;69.70;100276.06;5056714;28;45379;-69
2022/12/23 03:02:11;;;;;;;;;0.00;0.00;;;;;15.10;69.90;100280.38;5048459;28;45450;-69
2022/12/23 03:04:39;;;;;;;;;2.75;0.00;;;;;15.09;69.54;100290.06;5044103;28;66658;-69
2022/12/23 03:07:05;;;;;;;;;0.75;0.75;;;;;15.10;69.72;100277.75;5042133;28;45357;-69
2022/12/23 03:09:46;;;;;;;;;1.00;1.00;;;;;15.12;69.38;100283.78;5049591;28;45309;-69
2022/12/23 03:12:18;;;;;;;;;1.00;1.00;;;;;15.13;69.73;100274.94;5048130;28;46453;-69
2022/12/23 03:15:21;;;;;;;;;2.00;0.50;;;;;15.12;69.49;100281.13;5043626;28;45391;-69
2022/12/23 03:17:56;;;;;;;;;1.50;0.00;;;;;15.12;69.25;100276.75;5052580;28;45513;-69
2022/12/23 03:20:26;;;;;;;;;1.50;0.00;;;;;15.10;69.06;100269.84;5039374;28;45327;-69
2022/12/23 03:23:20;;;;;;;;;2.50;1.75;;;;;15.08;69.09;100248.81;5051200;28;46198;-71
2022/12/23 03:25:58;;;;;;;;;2.25;0.25;;;;;15.08;69.21;100263.78;5044822;28;45742;-69
2022/12/23 03:28:39;;;;;;;;;1.00;1.00;;;;;15.05;68.95;100259.56;5048948;28;45358;-69
2022/12/23 03:31:10;;;;;;;;;2.00;1.25;;;;;15.05;69.02;100267.47;5049316;28;45379;-69
2022/12/23 03:33:42;;;;;;;;;0.75;0.00;;;;;15.04;68.96;100257.84;5055197;28;46064;-68
2022/12/23 03:36:16;;;;;;;;;1.50;0.75;;;;;15.04;68.86;100257.00;5065727;28;45017;-68
2022/12/23 03:38:42;;;;;;;;;0.00;0.00;;;;;15.01;68.80;100258.00;5051054;28;44808;-69
2022/12/23 03:41:15;;;;;;;;;2.25;0.75;;;;;15.02;68.97;100262.34;5051347;28;45411;-68
2022/12/23 03:43:43;;;;;;;;;3.00;0.75;;;;;15.00;68.71;100265.06;5063728;28;45381;-69
2022/12/23 03:46:24;;;;;;;;;1.25;1.00;;;;;15.03;69.11;100273.72;5052363;28;45638;-69
2022/12/23 03:48:55;;;;;;;;;1.00;1.00;;;;;15.03;68.89;100263.19;5047940;28;45293;-70
2022/12/23 03:51:33;;;;;;;;;1.25;1.25;;;;;15.00;68.95;100254.50;5040710;28;45438;-69
2022/12/23 03:54:01;;;;;;;;;1.25;1.00;;;;;15.00;68.83;100267.69;5055415;28;46523;-70
2022/12/23 03:56:30;;;;;;;;;4.75;1.00;;;;;15.03;68.55;100265.81;5054722;28;48027;-69
2022/12/23 03:59:02;;;;;;;;;0.75;0.75;;;;;15.02;68.49;100267.63;5045731;28;45434;-69
2022/12/23 04:01:39;;;;;;;;;1.00;1.00;;;;;15.00;68.45;100272.13;5036700;28;45455;-69
2022/12/23 04:04:10;;;;;;;;;0.00;0.00;;;;;14.98;68.54;100266.09;5054614;28;46359;-69
2022/12/23 04:06:42;;;;;;;;;1.75;1.75;;;;;14.99;68.74;100265.13;5046348;28;45783;-69
2022/12/23 04:09:09;;;;;;;;;1.75;1.00;;;;;14.98;68.70;100255.53;5042874;28;45459;-69
2022/12/23 04:11:34;;;;;;;;;2.50;1.00;;;;;14.97;68.83;100238.84;5053330;28;45377;-69
2022/12/23 04:14:00;;;;;;;;;3.00;1.00;;;;;14.95;68.85;100235.47;5046652;28;62152;-69
2022/12/23 04:16:26;;;;;;;;;1.75;1.75;;;;;14.96;68.69;100236.31;5053765;28;45475;-69
2022/12/23 04:18:52;;;;;;;;;2.00;0.75;;;;;14.93;68.94;100242.59;5050754;28;45307;-69
2022/12/23 04:21:17;;;;;;;;;1.75;1.50;;;;;14.92;68.64;100234.78;5054515;28;59668;-69
2022/12/23 04:23:42;;;;;;;;;4.00;2.00;;;;;14.92;68.76;100237.41;5047633;28;67890;-69
2022/12/23 04:26:08;;;;;;;;;2.00;0.25;;;;;14.92;69.02;100247.94;5055721;28;45267;-69
2022/12/23 04:28:33;;;;;;;;;1.00;0.00;;;;;14.92;68.74;100255.84;5055233;28;57513;-69
2022/12/23 04:30:58;;;;;;;;;1.00;1.00;;;;;14.92;68.77;100261.97;5054837;28;45325;-70
2022/12/23 04:33:24;;;;;;;;;1.00;1.00;;;;;14.93;68.81;100249.66;5045681;28;52155;-69
2022/12/23 04:35:49;;;;;;;;;1.75;1.00;;;;;14.93;68.65;100252.28;5056833;28;45213;-69
2022/12/23 04:38:14;;;;;;;;;1.50;0.00;;;;;14.91;68.76;100244.47;5044418;28;45164;-69
2022/12/23 04:40:44;;;;;;;;;1.50;1.00;;;;;14.90;68.64;100245.38;5054589;28;45212;-70
2022/12/23 04:43:10;;;;;;;;;1.50;1.25;;;;;14.91;68.94;100247.09;5052979;28;46674;-69
2022/12/23 04:45:35;;;;;;;;;2.00;2.00;;;;;14.90;68.75;100253.28;5045749;28;66716;-69
2022/12/23 04:48:00;;;;;;;;;2.25;0.00;;;;;14.91;68.87;100243.59;5045186;28;45612;-69
2022/12/23 04:50:26;;;;;;;;;2.00;1.00;;;;;14.89;69.02;100238.44;5046698;28;57447;-69
2022/12/23 04:52:51;;;;;;;;;2.00;1.00;;;;;14.89;69.08;100234.94;5046312;28;66953;-69
2022/12/23 04:55:16;;;;;;;;;2.00;2.00;;;;;14.88;69.04;100236.72;5055385;28;59188;-69
2022/12/23 04:57:42;;;;;;;;;2.50;1.75;;;;;14.88;68.93;100225.34;5050525;28;45256;-69
2022/12/23 05:00:08;;;;;;;;;4.25;3.00;;;;;14.88;69.28;100220.06;5053031;28;45613;-70
2022/12/23 05:02:33;;;;;;;;;5.25;4.25;;;;;14.89;69.20;100227.03;5057072;28;46363;-69
2022/12/23 05:04:58;;;;;;;;;2.50;1.00;;;;;14.90;69.13;100226.09;5054077;28;61830;-69
2022/12/23 05:07:24;;;;;;;;;2.00;2.00;;;;;14.90;69.34;100223.47;5054309;28;45357;-69
2022/12/23 05:09:49;;;;;;;;;3.00;2.00;;;;;14.92;69.42;100229.50;5054430;28;54292;-70
2022/12/23 05:12:15;;;;;;;;;3.00;3.00;;;;;14.91;69.12;100228.66;5046139;28;67842;-69
2022/12/23 05:14:40;;;;;;;;;3.00;1.75;;;;;14.94;69.24;100228.50;5051688;28;63339;-69
2022/12/23 05:17:05;;;;;;;;;2.75;1.50;;;;;14.94;69.22;100231.16;5052203;28;62362;-69
2022/12/23 05:19:31;;;;;;;;;3.25;2.00;;;;;14.96;69.05;100231.91;5056828;28;45405;-69
2022/12/23 05:21:56;;;;;;;;;4.00;1.50;;;;;14.97;69.03;100224.84;5054934;28;59085;-69
2022/12/23 05:24:21;;;;;;;;;7.50;1.50;;;;;14.97;69.41;100215.16;5052596;28;60566;-69
2022/12/23 05:26:49;;;;;;;;;3.50;3.00;;;;;14.99;69.17;100213.28;5050261;28;45373;-69
2022/12/23 05:29:15;;;;;;;;;3.50;1.00;;;;;14.99;69.40;100210.63;5043406;28;45482;-69
2022/12/23 05:31:41;;;;;;;;;3.00;1.00;;;;;15.02;69.27;100221.97;5050583;28;46112;-70
2022/12/23 05:34:06;;;;;;;;;2.00;0.75;;;;;15.02;68.99;100214.91;5056472;28;51221;-69
2022/12/23 05:36:31;;;;;;;;;3.50;2.00;;;;;15.05;69.08;100208.63;5048693;28;62289;-70
2022/12/23 05:38:57;;;;;;;;;2.00;1.25;;;;;15.04;69.55;100217.47;5043044;28;45399;-69
2022/12/23 05:41:22;;;;;;;;;3.50;2.00;;;;;15.05;69.21;100212.13;5047460;28;46473;-69
2022/12/23 05:43:48;;;;;;;;;2.00;1.25;;;;;15.05;69.38;100206.84;5047642;28;65120;-69
2022/12/23 05:46:13;;;;;;;;;3.00;1.00;;;;;15.05;69.31;100204.22;5043250;28;55881;-69
2022/12/23 05:48:38;;;;;;;;;1.00;1.00;;;;;15.06;69.65;100191.88;5054392;28;45444;-70
2022/12/23 05:51:04;;;;;;;;;1.50;1.00;;;;;15.07;69.68;100196.19;5051538;28;60804;-69
2022/12/23 05:53:29;;;;;;;;;2.00;0.25;;;;;15.07;69.44;100188.28;5050654;28;45345;-69
2022/12/23 05:55:55;;;;;;;;;1.00;0.75;;;;;15.05;69.53;100188.41;5048014;28;46500;-70
2022/12/23 05:58:20;;;;;;;;;1.25;1.00;;;;;15.06;69.97;100181.34;5048666;28;45240;-70
2022/12/23 06:00:45;;;;;;;;;0.00;0.00;;;;;15.06;69.73;100182.19;5051634;28;47089;-69
2022/12/23 06:03:11;;;;;;;;;0.00;0.00;;;;;15.05;69.98;100188.41;5051168;28;48506;-69
2022/12/23 06:05:38;;;;;;;;;1.50;1.00;;;;;15.03;69.64;100184.13;5055248;28;45254;-71
2022/12/23 06:08:04;;;;;;;;;1.50;1.00;;;;;15.06;70.13;100194.50;5048868;28;45616;-69
2022/12/23 06:10:29;;;;;;;;;1.50;1.00;;;;;15.06;69.78;100189.25;5055597;28;45712;-70
2022/12/23 06:12:55;;;;;;;;;2.00;1.00;;;;;15.07;70.02;100193.56;5047945;28;62740;-70
2022/12/23 06:15:20;;;;;;;;;3.25;1.75;;;;;15.08;70.09;100187.38;5051524;28;45556;-69
2022/12/23 06:17:45;;;;;;;;;1.75;1.00;;;;;15.08;70.26;100182.94;5045694;28;54899;-69
2022/12/23 06:20:11;;;;;;;;;1.25;1.00;;;;;15.09;69.93;100179.38;5046446;28;64365;-69
2022/12/23 06:22:36;;;;;;;;;0.75;0.00;;;;;15.09;69.99;100182.03;5054540;28;45433;-69
2022/12/23 06:25:01;;;;;;;;;2.75;0.50;;;;;15.09;70.47;100176.75;5045575;28;45565;-69
2022/12/23 06:27:27;;;;;;;;;3.25;0.75;;;;;15.11;70.32;100181.94;5050982;28;58525;-69
2022/12/23 06:29:52;;;;;;;;;2.00;1.00;;;;;15.11;70.05;100180.16;5043537;28;63230;-69
2022/12/23 06:32:17;;;;;;;;;3.00;2.00;;;;;15.12;70.75;100181.00;5044006;28;56424;-69
2022/12/23 06:34:43;;;;;;;;;1.00;1.00;;;;;15.13;70.62;100182.69;5044906;28;45206;-69
2022/12/23 06:37:08;;;;;;;;;1.00;1.00;;;;;15.13;70.30;100182.69;5053818;28;45552;-70
2022/12/23 06:39:34;;;;;;;;;1.00;1.00;;;;;15.12;70.34;100165.16;5057208;28;57467;-70
2022/12/23 06:41:59;;;;;;;;;0.00;0.00;;;;;15.12;70.54;100157.25;5029674;28;45291;-69
2022/12/23 06:44:24;;;;;;;;;2.00;1.00;;;;;15.11;70.43;100150.31;5049331;28;56651;-69
2022/12/23 06:46:50;;;;;;;;;2.00;0.50;;;;;15.10;70.79;100156.50;5054804;28;45470;-69
2022/12/23 06:49:15;;;;;;;;;4.00;2.00;;;;;15.11;70.74;100161.69;5054066;28;55192;-69
2022/12/23 06:51:40;;;;;;;;;1.00;1.00;;;;;15.13;70.47;100164.25;5054942;28;65510;-69
2022/12/23 06:54:06;;;;;;;;;0.75;0.75;;;;;15.12;70.68;100155.50;5056478;28;45329;-69
2022/12/23 06:56:34;;;;;;;;;0.00;0.00;;;;;15.12;70.73;100149.34;5047718;28;55369;-69
2022/12/23 06:59:00;;;;;;;;;0.75;0.00;;;;;15.12;70.71;100152.88;5049620;28;46336;-69
2022/12/23 07:01:25;;;;;;;;;0.00;0.00;;;;;15.12;70.36;100138.81;5049252;28;63327;-69
2022/12/23 07:03:50;;;;;;;;;1.50;0.75;;;;;15.12;70.79;100134.41;5048610;28;64024;-69
2022/12/23 07:06:16;;;;;;;;;0.75;0.50;;;;;15.14;70.52;100136.97;5047646;28;45506;-69
2022/12/23 07:08:41;;;;;;;;;1.00;1.00;;;;;15.15;70.81;100128.13;5046981;28;46320;-69
2022/12/23 07:11:07;;;;;;;;;0.50;0.00;;;;;15.16;70.30;100130.66;5053942;28;58692;-69
2022/12/23 07:13:32;;;;;;;;;0.00;0.00;;;;;15.16;70.68;100141.22;5047413;28;45332;-69
2022/12/23 07:16:03;;;;;;;;;0.00;0.00;;;;;15.16;70.85;100135.09;5046549;28;59955;-69
2022/12/23 07:18:28;;;;;;;;;0.25;0.00;;;;;15.18;70.56;100126.16;5056322;28;47328;-69
2022/12/23 07:20:58;;;;;;;;;1.00;1.00;;;;;15.18;70.35;100126.16;5046348;28;45453;-69
2022/12/23 07:23:23;;;;;;;;;2.75;1.00;;;;;15.18;70.44;100120.88;5046686;28;45382;-69
2022/12/23 07:25:49;;;;;;;;;1.00;1.00;;;;;15.18;70.38;100126.16;5048172;28;67198;-69
2022/12/23 07:28:14;;;;;;;;;0.00;0.00;;;;;15.20;70.51;100120.81;5045389;28;70408;-69
2022/12/23 07:30:39;;;;;;;;;0.00;0.00;;;;;15.21;70.73;100117.25;5041006;28;45312;-69
2022/12/23 07:33:05;;;;;;;;;0.75;0.00;;;;;15.23;70.36;100119.75;5047079;28;55803;-69
2022/12/23 07:35:30;;;;;;;;;0.00;0.00;;;;;15.25;70.55;100120.56;5040535;28;45241;-68
2022/12/23 07:37:55;;;;;;;;;0.00;0.00;;;;;15.25;70.21;100115.28;5041920;28;46172;-69
2022/12/23 07:40:22;;;;;;;;;1.00;1.00;;;;;15.25;70.48;100115.28;5046176;28;45205;-68
2022/12/23 07:42:48;;;;;;;;;0.00;0.00;;;;;15.26;70.23;100122.25;5042783;28;45248;-69
2022/12/23 07:45:14;;;;;;;;;0.75;0.75;;;;;15.27;70.51;100116.88;5043938;28;45534;-69
2022/12/23 07:47:40;;;;;;;;;2.00;1.00;;;;;15.27;70.60;100130.06;5044247;28;45419;-68
2022/12/23 07:50:06;;;;;;;;;1.75;0.00;;;;;15.28;70.19;100123.00;5053707;28;45272;-69
2022/12/23 07:52:31;;;;;;;;;1.25;0.75;;;;;15.28;70.44;100125.63;5040515;28;45382;-69
2022/12/23 07:54:56;;;;;;;;;0.00;0.00;;;;;15.28;70.24;100126.50;5050452;28;62876;-69
2022/12/23 07:57:23;;;;;;;;;1.00;1.00;;;;;15.29;70.36;100127.34;5049741;28;50201;-69
2022/12/23 07:59:48;;;;;;;;;1.00;1.00;;;;;15.29;70.27;100117.63;5049847;28;45477;-69
2022/12/23 08:02:13;;;;;;;;;1.00;0.50;;;;;15.30;70.30;100116.72;5046152;28;58003;-69
2022/12/23 08:04:39;;;;;;;;;0.25;0.25;;;;;15.31;70.61;100121.03;5038237;28;47338;-69
2022/12/23 08:07:04;;;;;;;;;0.50;0.50;;;;;15.32;70.37;100103.44;5046959;28;45977;-70
2022/12/23 08:09:29;;;;;;;;;1.00;0.75;;;;;15.34;70.15;100102.41;5048495;28;66843;-69
2022/12/23 08:11:55;;;;;;;;;1.25;1.00;;;;;15.36;70.29;100116.34;5045091;28;56157;-69
2022/12/23 08:14:20;;;;;;;;;3.00;0.00;;;;;15.37;70.11;100101.41;5045605;28;55452;-69
2022/12/23 08:16:46;;;;;;;;;0.00;0.00;;;;;15.37;69.89;100112.78;5048736;28;46046;-69
2022/12/23 08:19:12;;;;;;;;;1.25;0.00;;;;;15.37;69.93;100109.31;5042156;28;61510;-69
2022/12/23 08:21:37;;;;;;;;;2.25;0.00;;;;;15.34;69.98;100096.31;5043587;28;45256;-69
2022/12/23 08:24:03;;;;;;;;;0.75;0.50;;;;;15.37;70.04;100093.50;5049216;28;66033;-69
2022/12/23 08:26:28;;;;;;;;;1.00;1.00;;;;;15.36;70.00;100082.09;5044082;28;45559;-69
2022/12/23 08:28:53;;;;;;;;;1.00;0.00;;;;;15.37;70.12;100075.88;5048968;28;61765;-69
2022/12/23 08:31:24;;;;;;;;;0.00;0.00;;;;;15.38;69.96;100085.47;5041982;28;53448;-69
2022/12/23 08:33:52;;;;;;;;;0.00;0.00;;;;;15.37;70.09;100080.31;5045852;28;45422;-69
2022/12/23 08:36:23;;;;;;;;;0.00;0.00;;;;;15.36;70.15;100073.34;5048610;28;45413;-69
2022/12/23 08:38:50;;;;;;;;;0.50;0.00;;;;;15.37;70.22;100080.31;5044323;28;45659;-69
2022/12/23 08:41:19;;;;;;;;;1.00;0.00;;;;;15.38;70.08;100082.00;5052630;28;45492;-69
2022/12/23 08:43:45;;;;;;;;;2.00;0.50;;;;;15.38;69.97;100071.44;5042217;28;45619;-69
2022/12/23 08:46:10;;;;;;;;;2.25;0.50;;;;;15.41;70.24;100073.91;5042315;28;66823;-68
2022/12/23 08:48:36;;;;;;;;;0.00;0.00;;;;;15.41;69.89;100067.81;5042438;28;52221;-70
2022/12/23 08:51:04;;;;;;;;;1.00;0.00;;;;;15.42;69.80;100058.94;5040612;28;45340;-69
2022/12/23 08:53:30;;;;;;;;;0.00;0.00;;;;;15.43;69.86;100050.94;5047816;28;45228;-69
2022/12/23 08:55:55;;;;;;;;;0.00;0.00;;;;;15.44;70.34;100055.28;5041512;28;45473;-69
2022/12/23 08:58:20;;;;;;;;;1.25;0.00;;;;;15.44;70.08;100035.97;5048191;28;45323;-69
2022/12/23 09:00:46;;;;;;;;;0.00;0.00;;;;;15.44;70.28;100034.19;5045786;28;59867;-69
2022/12/23 09:03:11;;;;;;;;;0.00;0.00;;;;;15.44;69.72;100030.69;5047496;28;57732;-68
2022/12/23 09:05:40;;;;;;;;;0.00;0.00;;;;;15.45;70.26;100027.13;5041309;28;45607;-68
2022/12/23 09:08:06;;;;;;;;;0.00;0.00;;;;;15.46;69.77;100013.84;5044113;28;46110;-69
2022/12/23 09:10:31;;;;;;;;;0.25;0.25;;;;;15.47;70.15;99988.31;5050171;28;45415;-69
2022/12/23 09:12:57;;;;;;;;;0.50;0.00;;;;;15.47;70.14;99956.69;5048045;28;52952;-69
2022/12/23 09:15:22;;;;;;;;;5.50;1.75;;;;;15.47;69.80;99967.22;5044547;28;64866;-69
2022/12/23 09:17:47;;;;;;;;;2.00;2.00;;;;;15.47;69.96;99973.34;5045512;28;45443;-69
2022/12/23 09:20:13;;;;;;;;;0.50;0.50;;;;;15.47;69.60;99972.50;5042968;28;45654;-69
2022/12/23 09:22:38;;;;;;;;;0.00;0.00;;;;;15.48;69.74;99971.59;5045280;28;51576;-69
2022/12/23 09:25:04;;;;;;;;;0.50;0.50;;;;;15.49;69.75;99984.69;5047974;28;46429;-69
2022/12/23 09:27:29;;;;;;;;;1.75;0.00;;;;;15.52;69.75;100002.09;5051824;28;45443;-69
2022/12/23 09:29:55;;;;;;;;;1.25;0.50;;;;;15.51;69.63;100009.16;5045726;28;57092;-69
2022/12/23 09:32:20;;;;;;;;;0.00;0.00;;;;;15.52;69.53;100016.13;5047090;28;49111;-69
2022/12/23 09:34:45;;;;;;;;;0.25;0.25;;;;;15.54;69.82;100026.56;5051941;28;64075;-69
2022/12/23 09:37:12;;;;;;;;;0.25;0.25;;;;;15.57;69.67;100023.78;5049988;28;61352;-69
2022/12/23 09:39:37;;;;;;;;;2.00;1.00;;;;;15.60;69.92;100026.22;5057631;28;45494;-69
2022/12/23 09:42:19;;;;;;;;;0.50;0.00;;;;;15.62;69.70;100056.00;5052909;28;45432;-69
2022/12/23 09:44:48;;;;;;;;;0.00;0.00;;;;;15.62;69.52;100055.16;5051134;28;47102;-69
2022/12/23 09:47:20;;;;;;;;;0.50;0.50;;;;;15.61;69.33;100050.81;5048805;28;45667;-69
2022/12/23 09:49:52;;;;;;;;;0.50;0.50;;;;;15.61;69.91;100048.16;5046171;28;45303;-69
2022/12/23 09:52:24;;;;;;;;;0.00;0.00;;;;;15.61;69.72;100056.94;5045484;28;45391;-68
2022/12/23 09:54:52;;;;;;;;;0.25;0.25;;;;;15.64;69.59;100042.72;5050862;28;47879;-69
2022/12/23 09:57:35;;;;;;;;;5.50;2.75;;;;;15.65;69.28;100044.41;5047428;28;45525;-69
2022/12/23 10:00:10;;;;;;;;;5.75;5.00;;;;;15.66;69.63;100041.69;5048126;28;45377;-69
2022/12/23 10:03:22;;;;;;;;;0.50;0.50;;;;;15.68;69.62;100028.41;5051461;28;46623;-68
2022/12/23 10:06:08;;;;;;;;;2.50;1.75;;;;;15.71;69.55;100044.91;5026164;28;45497;-69
2022/12/23 10:08:38;;;;;;;;;1.75;0.50;;;;;15.73;69.56;100053.56;5038292;28;45293;-69
2022/12/23 10:11:14;;;;;;;;;1.50;1.50;;;;;15.73;69.45;100040.38;5049548;28;45454;-69
2022/12/23 10:13:53;;;;;;;;;1.00;1.00;;;;;15.75;69.53;100040.31;5046875;28;45542;-68
2022/12/23 10:16:22;;;;;;;;;0.50;0.50;;;;;15.78;69.37;100036.66;5047253;28;48107;-69
2022/12/23 10:19:02;;;;;;;;;1.50;0.00;;;;;15.80;69.37;100025.06;5041524;28;45353;-69
2022/12/23 10:21:45;;;;;;;;;0.00;0.00;;;;;15.79;69.30;100014.59;5050352;28;45454;-69
2022/12/23 10:24:44;;;;;;;;;3.00;2.00;;;;;15.80;69.00;100009.22;5044950;28;45451;-69
2022/12/23 10:27:29;;;;;;;;;1.50;0.00;;;;;15.82;68.94;100012.63;5017988;28;46761;-69
2022/12/23 10:29:55;;;;;;;;;0.50;0.50;;;;;15.82;69.34;100015.25;5047176;28;46776;-69
2022/12/23 10:32:58;;;;;;;;;1.00;1.00;;;;;15.84;69.17;100023.09;5046693;28;45292;-69
2022/12/23 10:35:34;;;;;;;;;2.00;1.00;;;;;15.86;69.40;100024.69;5041380;28;45498;-69
2022/12/23 10:38:24;;;;;;;;;2.75;2.00;;;;;15.86;69.28;100024.69;5048243;28;46499;-69
2022/12/23 10:40:56;;;;;;;;;2.75;1.00;;;;;15.88;69.42;100020.19;5052505;28;45494;-68
2022/12/23 10:43:21;;;;;;;;;1.25;0.25;;;;;15.89;69.59;100018.38;5047540;28;46065;-69
2022/12/23 10:46:11;;;;;;;;;0.67;0.67;;;;;15.90;69.35;100031.50;5050708;28;45412;-69
2022/12/23 10:48:48;;;;;;;;;1.00;1.00;;;;;15.90;69.57;100035.91;5056468;28;47347;-69
2022/12/23 10:51:21;;;;;;;;;0.75;0.25;;;;;15.89;69.84;100026.31;5051878;28;45465;-69
2022/12/23 10:53:59;;;;;;;;;0.75;0.75;;;;;15.89;69.80;100010.47;5048651;28;46142;-68
2022/12/23 10:56:27;;;;;;;;;2.00;1.00;;;;;15.92;69.82;100011.13;5051201;28;46208;-68
2022/12/23 10:58:55;;;;;;;;;0.75;0.25;;;;;15.95;69.68;100012.72;5043484;28;46613;-68
2022/12/23 11:01:21;;;;;;;;;0.00;0.00;;;;;15.97;69.31;99999.44;5046562;28;46106;-68
2022/12/23 11:03:55;;;;;;;;;1.00;1.00;;;;;15.99;69.43;99982.59;5043839;28;54099;-68
2022/12/23 11:06:21;;;;;;;;;2.50;1.00;;;;;16.02;69.27;99990.28;5051462;28;45232;-68
2022/12/23 11:08:47;;;;;;;;;3.00;1.50;;;;;16.03;69.14;99997.28;5044635;28;46600;-68
2022/12/23 11:11:12;;;;;;;;;0.00;0.00;;;;;16.06;69.38;100006.78;5046747;28;62946;-69
2022/12/23 11:13:40;;;;;;;;;0.75;0.50;;;;;16.07;69.09;100009.31;5042276;28;45402;-68
2022/12/23 11:16:26;;;;;;;;;1.50;0.00;;;;;16.07;69.00;100011.97;5044486;28;45478;-68
2022/12/23 11:19:15;;;;;;;;;0.50;0.50;;;;;16.11;68.94;100015.25;5055801;28;46193;-68
2022/12/23 11:21:54;;;;;;;;;0.50;0.00;;;;;16.13;68.70;100034.53;5052826;28;45561;-68
2022/12/23 11:24:21;;;;;;;;;1.00;1.00;;;;;16.13;68.50;100043.28;5050677;28;45555;-68
2022/12/23 11:27:11;;;;;;;;;1.25;0.00;;;;;16.15;68.32;100030.00;5041668;28;45397;-68
2022/12/23 11:29:41;;;;;;;;;0.00;0.00;;;;;16.16;68.20;100036.94;5039335;28;46397;-67
2022/12/23 11:32:19;;;;;;;;;0.75;0.00;;;;;16.17;67.94;100049.22;5047891;28;45407;-68
2022/12/23 11:34:47;;;;;;;;;0.00;0.00;;;;;16.17;67.52;100038.66;5046278;28;45514;-69
2022/12/23 11:37:41;;;;;;;;;0.50;0.00;;;;;16.17;68.11;100020.19;5048807;28;45525;-68
2022/12/23 11:40:23;;;;;;;;;1.00;0.00;;;;;16.22;67.75;100025.16;5039253;28;45300;-68
2022/12/23 11:42:52;;;;;;;;;0.25;0.25;;;;;16.27;67.72;100028.38;5046713;28;45451;-68
2022/12/23 11:45:24;;;;;;;;;1.00;0.75;;;;;16.33;67.95;100028.00;5051209;28;45200;-69
2022/12/23 11:47:50;;;;;;;;;2.00;0.75;;;;;16.35;67.42;100031.38;5034515;28;45479;-68
2022/12/23 11:50:19;;;;;;;;;0.75;0.75;;;;;16.37;67.57;100037.41;5038691;28;46264;-69
2022/12/23 11:52:50;;;;;;;;;1.25;0.75;;;;;16.38;67.23;100018.00;5042274;28;45269;-68
2022/12/23 11:55:28;;;;;;;;;0.00;0.00;;;;;16.41;67.13;100015.16;5048625;28;45321;-69
2022/12/23 11:57:55;;;;;;;;;0.75;0.75;;;;;16.46;67.21;100025.44;5048583;28;45288;-69
2022/12/23 12:00:27;;;;;;;;;1.50;1.00;;;;;16.51;66.76;100024.19;5044420;28;46250;-68
2022/12/23 12:02:55;;;;;;;;;0.75;0.75;;;;;16.58;66.31;100027.31;5053244;28;45483;-68
2022/12/23 12:05:37;;;;;;;;;0.00;0.00;;;;;16.63;66.53;100017.28;5039515;28;45249;-68